Time;durP1;ratioP1;P1;durP2;ratioP2;P2;SDS_P1;SDS_P2;PMS_P1;PMS_P2;Temp;Humidity;BMP_temperature;BMP_pressure;BME280_temperature;BME280_humidity;BME280_pressure;Samples;Min_cycle;Max_cycle;Signal;HPM_P1;HPM_P2
2022/01/23 00:01:09;;;;;;;5.15;4.07;;;;;;;-1.08;53.90;94852.09;5008521;28;20203;-77
2022/01/23 00:04:07;;;;;;;5.82;4.35;;;;;;;-0.75;53.55;94852.16;5032568;28;20611;-78
2022/01/23 00:06:35;;;;;;;4.05;3.65;;;;;;;-0.96;53.65;94864.94;4983114;28;20192;-77
2022/01/23 00:09:05;;;;;;;3.97;3.53;;;;;;;-1.14;54.14;94867.13;5009733;28;20188;-76
2022/01/23 00:11:35;;;;;;;3.65;3.35;;;;;;;-0.88;53.25;94870.28;5024898;28;20207;-76
2022/01/23 00:19:14;;;;;;;4.80;4.43;;;;;;;-0.62;53.23;94869.06;5029202;28;20214;-77
2022/01/23 00:21:45;;;;;;;4.95;4.50;;;;;;;-0.54;53.22;94873.59;5008210;28;20180;-76
2022/01/23 00:32:07;;;;;;;4.05;3.75;;;;;;;-0.73;54.11;94881.94;5030973;28;20202;-76
2022/01/23 00:34:32;;;;;;;3.80;3.38;;;;;;;-0.91;54.20;94885.91;5030251;28;20191;-76
2022/01/23 00:37:01;;;;;;;5.73;4.57;;;;;;;-0.64;53.80;94885.53;5027783;28;20172;-76
2022/01/23 00:39:29;;;;;;;4.57;3.25;;;;;;;-1.20;54.69;94886.41;5008023;28;20300;-76
2022/01/23 00:41:57;;;;;;;3.10;2.90;;;;;;;-1.33;55.58;94893.38;5010563;28;20341;-76
2022/01/23 00:44:22;;;;;;;6.68;3.95;;;;;;;-0.81;54.84;94881.72;5010562;28;20267;-75
2022/01/23 00:46:51;;;;;;;4.63;4.23;;;;;;;-0.88;55.17;94880.56;5010456;28;20246;-75
2022/01/23 00:49:26;;;;;;;7.20;2.92;;;;;;;-0.74;55.23;94885.44;5013544;28;20260;-75
2022/01/23 00:51:55;;;;;;;3.30;2.95;;;;;;;-0.34;53.44;94889.19;5003286;28;20202;-75
2022/01/23 00:54:32;;;;;;;1.65;1.55;;;;;;;-1.10;55.52;94887.34;5020305;28;20569;-76
2022/01/23 00:56:57;;;;;;;3.70;3.40;;;;;;;-0.71;54.62;94890.31;5012163;28;20214;-77
2022/01/23 00:59:23;;;;;;;2.80;2.50;;;;;;;-0.87;55.69;94884.75;5013554;28;20192;-77
2022/01/23 01:01:48;;;;;;;2.17;2.00;;;;;;;-1.06;55.32;94883.59;5014495;28;20195;-76
2022/01/23 01:04:14;;;;;;;6.00;3.83;;;;;;;-0.67;55.13;94878.88;5016551;28;20200;-76
2022/01/23 01:06:39;;;;;;;3.83;3.53;;;;;;;-0.55;54.85;94874.56;5007449;28;20203;-76
2022/01/23 01:09:07;;;;;;;1.83;1.73;;;;;;;-0.82;54.45;94885.22;5013342;28;20230;-77
2022/01/23 01:11:57;;;;;;;5.00;4.25;;;;;;;-0.60;55.51;94874.91;5031386;28;20763;-76
2022/01/23 01:14:28;;;;;;;3.70;3.40;;;;;;;-0.66;55.47;94872.00;5028649;28;20576;-76
2022/01/23 01:35:40;;;;;;;4.20;3.70;;;;;;;-0.91;56.55;94891.06;5028963;28;20188;-77
2022/01/23 01:38:11;;;;;;;4.88;4.28;;;;;;;-1.09;56.76;94886.41;5011735;28;20278;-77
2022/01/23 01:40:36;;;;;;;4.80;4.30;;;;;;;-1.35;57.36;94885.00;5011233;28;20296;-76
2022/01/23 01:43:03;;;;;;;3.73;3.43;;;;;;;-0.98;56.64;94883.81;5028978;28;20217;-77
2022/01/23 01:45:31;;;;;;;7.40;3.67;;;;;;;-1.10;57.18;94884.78;5032719;28;20191;-76
2022/01/23 01:48:00;;;;;;;3.08;2.78;;;;;;;-1.24;57.41;94882.44;5012347;28;20227;-76
2022/01/23 01:50:27;;;;;;;4.22;3.78;;;;;;;-1.18;56.82;94881.97;5032149;28;20200;-76
2022/01/23 01:52:53;;;;;;;3.53;3.22;;;;;;;-1.81;59.01;94889.22;5033541;28;20192;-76
2022/01/23 01:55:37;;;;;;;5.33;4.20;;;;;;;-1.36;57.85;94880.81;5017624;28;20723;-76
2022/01/23 01:58:05;;;;;;;4.22;3.30;;;;;;;-1.41;57.89;94876.81;5031847;28;20196;-76
2022/01/23 02:08:29;;;;;;;4.97;3.50;;;;;;;-1.63;57.81;94884.47;5031121;28;20191;-76
2022/01/23 02:11:13;;;;;;;6.10;4.20;;;;;;;-0.96;56.56;94888.03;5011563;28;20579;-76
2022/01/23 02:13:50;;;;;;;6.07;4.45;;;;;;;-1.30;57.26;94888.84;5017021;28;20832;-76
2022/01/23 02:56:48;;;;;;;8.73;4.77;;;;;;;-1.28;55.91;94911.84;5028089;28;20660;-77
2022/01/23 03:02:00;;;;;;;5.28;3.22;;;;;;;-1.65;57.01;94922.25;5029323;28;20191;-76
2022/01/23 03:04:28;;;;;;;5.55;4.53;;;;;;;-1.59;56.86;94924.38;5011777;28;20206;-77
2022/01/23 03:14:57;;;;;;;3.42;3.10;;;;;;;-1.44;56.14;94925.81;5028821;28;20198;-76
2022/01/23 03:33:34;;;;;;;6.05;3.08;;;;;;;-1.67;55.88;94931.81;5010945;28;20199;-75
2022/01/23 03:36:00;;;;;;;6.82;5.05;;;;;;;-1.39;54.94;94931.41;5022239;28;20192;-76
2022/01/23 03:38:26;;;;;;;5.38;4.85;;;;;;;-1.19;54.63;94931.69;5009860;28;20195;-76
2022/01/23 03:40:52;;;;;;;6.00;3.57;;;;;;;-1.50;54.93;94933.13;5027190;28;20192;-76
2022/01/23 03:43:26;;;;;;;5.50;5.00;;;;;;;-1.68;55.87;94930.19;5018005;28;20466;-76
2022/01/23 03:50:52;;;;;;;9.60;5.47;;;;;;;-1.21;54.42;94930.97;5028426;28;20223;-77
2022/01/23 03:53:18;;;;;;;4.55;2.90;;;;;;;-1.36;54.51;94932.13;5008824;28;20259;-76
2022/01/23 03:55:45;;;;;;;6.35;4.82;;;;;;;-1.23;54.41;94930.28;5010237;28;20559;-76
2022/01/23 03:58:10;;;;;;;7.18;4.38;;;;;;;-1.33;54.72;94945.53;5026357;28;20184;-76
2022/01/23 04:00:36;;;;;;;6.10;4.50;;;;;;;-1.10;54.28;94941.25;4999533;28;20226;-77
2022/01/23 04:03:02;;;;;;;6.50;4.87;;;;;;;-1.23;54.15;94940.56;5010686;28;20199;-76
2022/01/23 04:05:27;;;;;;;5.67;5.17;;;;;;;-1.52;54.98;94953.78;5000202;28;20212;-76
2022/01/23 04:07:53;;;;;;;3.90;3.50;;;;;;;-1.08;54.11;94953.97;5006401;28;20439;-77
2022/01/23 04:10:21;;;;;;;6.30;5.07;;;;;;;-1.43;54.53;94960.78;5027275;28;20203;-75
2022/01/23 04:12:57;;;;;;;4.93;3.60;;;;;;;-1.14;54.02;94964.69;5027235;28;20188;-76
2022/01/23 04:31:47;;;;;;;4.18;3.75;;;;;;;-1.34;53.03;94964.44;5030183;28;20264;-77
2022/01/23 04:45:30;;;;;;;5.72;4.55;;;;;;;-0.74;51.66;94962.53;5029416;28;20275;-76
2022/01/23 05:07:00;;;;;;;5.18;4.30;;;;;;;-0.89;51.89;94973.94;5030959;28;20200;-76
2022/01/23 05:09:27;;;;;;;3.55;3.03;;;;;;;-1.50;52.84;94980.16;5013795;28;20297;-76
2022/01/23 05:11:58;;;;;;;7.28;3.80;;;;;;;-1.66;52.76;94979.63;5032409;28;20207;-76
2022/01/23 05:14:30;;;;;;;8.02;4.60;;;;;;;-1.30;52.19;94975.31;5032659;28;20250;-76
2022/01/23 05:16:57;;;;;;;4.70;3.88;;;;;;;-1.17;52.46;94981.16;5013707;28;20259;-76
2022/01/23 05:19:23;;;;;;;8.60;5.60;;;;;;;-1.30;52.79;94986.38;5014228;28;20550;-77
2022/01/23 05:24:40;;;;;;;5.90;5.07;;;;;;;-1.20;51.93;94979.63;5022876;28;20466;-76
2022/01/23 05:27:09;;;;;;;4.00;3.60;;;;;;;-1.08;51.88;94990.75;5017730;28;20204;-77
2022/01/23 05:29:35;;;;;;;4.25;3.65;;;;;;;-1.09;51.84;94993.44;5013825;28;20200;-76
2022/01/23 05:32:04;;;;;;;6.78;6.07;;;;;;;-0.73;51.21;94989.84;5028070;28;20235;-76
2022/01/23 05:34:29;;;;;;;4.90;4.50;;;;;;;-0.71;50.86;95000.81;5028899;28;20211;-76
2022/01/23 05:36:55;;;;;;;4.87;4.40;;;;;;;-0.94;51.52;94997.41;5028950;28;20188;-76
2022/01/23 05:39:23;;;;;;;4.87;3.43;;;;;;;-1.40;52.09;95000.84;5029041;28;20188;-76
2022/01/23 05:41:54;;;;;;;4.82;4.43;;;;;;;-0.93;51.54;94993.09;5029279;28;20246;-75
2022/01/23 05:44:20;;;;;;;5.20;3.60;;;;;;;-1.14;51.54;94996.31;5028720;28;20192;-76
2022/01/23 05:46:46;;;;;;;4.00;3.70;;;;;;;-0.87;51.12;95001.16;5028754;28;20572;-75
2022/01/23 05:49:11;;;;;;;4.53;4.07;;;;;;;-0.75;50.27;94994.28;5010091;28;20191;-76
2022/01/23 05:51:37;;;;;;;5.53;4.63;;;;;;;-1.04;50.98;94996.47;5027879;28;20292;-76
2022/01/23 05:54:02;;;;;;;2.37;2.27;;;;;;;-1.23;50.83;94997.03;5011002;28;20195;-76
2022/01/23 05:56:28;;;;;;;5.30;3.93;;;;;;;-1.05;50.96;95000.78;5028745;28;20228;-76
2022/01/23 05:58:54;;;;;;;5.33;4.70;;;;;;;-0.80;50.50;95004.06;5010225;28;20202;-76
2022/01/23 06:01:19;;;;;;;4.57;3.80;;;;;;;-1.20;51.09;95004.47;5010086;28;20184;-76
2022/01/23 06:03:47;;;;;;;4.50;4.10;;;;;;;-0.99;50.28;95000.34;5027389;28;20211;-76
2022/01/23 06:06:13;;;;;;;5.32;4.82;;;;;;;-0.84;50.11;95007.81;5009719;28;20347;-76
2022/01/23 06:08:38;;;;;;;5.90;5.20;;;;;;;-1.07;51.22;95006.97;5010285;28;20195;-75
2022/01/23 06:11:04;;;;;;;5.67;4.33;;;;;;;-1.02;50.75;95007.44;5007111;28;20212;-75
2022/01/23 06:13:31;;;;;;;6.20;4.20;;;;;;;-1.84;52.53;95022.78;5028895;28;20192;-76
2022/01/23 06:15:57;;;;;;;5.10;4.53;;;;;;;-1.34;51.34;95015.78;5030000;28;20184;-76
2022/01/23 06:18:22;;;;;;;7.00;5.00;;;;;;;-1.12;51.36;95020.16;5011737;28;20247;-76
2022/01/23 06:20:48;;;;;;;4.87;4.27;;;;;;;-1.42;51.91;95016.34;5011522;28;20853;-76
2022/01/23 06:23:14;;;;;;;7.93;6.10;;;;;;;-0.99;50.78;95017.47;5027770;28;20957;-74
2022/01/23 06:25:44;;;;;;;6.30;5.03;;;;;;;-1.09;51.06;95030.19;5009890;28;20236;-75
2022/01/23 06:28:10;;;;;;;7.30;5.70;;;;;;;-1.12;51.34;95034.72;5009575;28;20195;-75
2022/01/23 06:30:37;;;;;;;4.70;4.30;;;;;;;-1.46;51.85;95027.75;5028183;28;20275;-75
2022/01/23 06:33:06;;;;;;;8.90;7.30;;;;;;;-1.81;52.16;95030.28;5007001;28;20193;-76
2022/01/23 06:35:32;;;;;;;5.50;4.85;;;;;;;-1.45;52.08;95033.72;5001911;28;20185;-76
2022/01/23 06:37:58;;;;;;;7.70;5.00;;;;;;;-1.17;51.44;95032.50;5009554;28;20176;-76
2022/01/23 06:40:24;;;;;;;6.33;5.40;;;;;;;-1.26;51.54;95028.06;5004424;28;20442;-75
2022/01/23 06:42:50;;;;;;;8.10;6.37;;;;;;;-1.47;52.76;95025.31;5027099;28;20192;-75
2022/01/23 06:45:15;;;;;;;6.67;5.53;;;;;;;-1.57;52.50;95027.72;5008211;28;20429;-75
2022/01/23 06:47:40;;;;;;;6.07;5.47;;;;;;;-1.07;51.47;95028.31;5008759;28;20198;-74
2022/01/23 06:50:07;;;;;;;8.57;5.20;;;;;;;-1.24;51.78;95026.19;5027646;28;20212;-74
2022/01/23 06:52:32;;;;;;;8.80;5.28;;;;;;;-1.06;51.35;95027.41;5017711;28;20188;-76
2022/01/23 06:54:58;;;;;;;5.30;4.80;;;;;;;-0.88;50.75;95014.94;5005797;28;20203;-75
2022/01/23 06:57:24;;;;;;;7.97;6.10;;;;;;;-1.07;51.51;95018.03;5008853;28;20215;-74
2022/01/23 06:59:49;;;;;;;5.47;4.97;;;;;;;-1.21;51.89;95023.41;5009452;28;20283;-75
2022/01/23 07:02:15;;;;;;;7.53;6.07;;;;;;;-0.92;51.24;95025.56;5009698;28;20242;-75
2022/01/23 07:04:40;;;;;;;5.73;5.10;;;;;;;-0.73;51.07;95030.13;5025827;28;20188;-74
2022/01/23 07:07:06;;;;;;;6.70;6.03;;;;;;;-0.22;50.10;95020.19;5026792;28;20298;-75
2022/01/23 07:09:32;;;;;;;8.40;6.00;;;;;;;-0.54;50.66;95014.94;5008016;28;20610;-75
2022/01/23 07:11:57;;;;;;;6.00;5.40;;;;;;;-0.78;50.74;95009.91;5008998;28;20427;-74
2022/01/23 07:14:23;;;;;;;10.20;6.97;;;;;;;-0.45;49.76;95016.00;5008854;28;20226;-75
2022/01/23 07:16:49;;;;;;;7.70;4.30;;;;;;;-0.96;50.78;95013.88;5008701;28;20327;-75
2022/01/23 07:19:15;;;;;;;8.53;7.60;;;;;;;-1.24;52.05;95015.91;5022549;28;20194;-75
2022/01/23 07:21:40;;;;;;;5.90;4.97;;;;;;;-1.25;51.51;95015.09;5027286;28;20345;-75
2022/01/23 07:24:09;;;;;;;5.43;4.93;;;;;;;-0.80;50.72;95019.50;5007082;28;20223;-75
2022/01/23 07:26:36;;;;;;;5.43;4.25;;;;;;;-0.85;51.29;95019.03;4999505;28;20203;-75
2022/01/23 07:29:04;;;;;;;8.60;7.72;;;;;;;-0.30;50.69;95021.72;5021285;28;20196;-75
2022/01/23 07:31:55;;;;;;;9.20;7.70;;;;;;;-0.22;50.27;95016.78;5008696;28;20686;-75
2022/01/23 07:34:18;;;;;;;8.20;7.13;;;;;;;0.03;49.59;95027.75;5025963;28;20208;-75
2022/01/23 07:36:43;;;;;;;6.77;6.10;;;;;;;-0.39;50.08;95023.25;5008628;28;20188;-75
2022/01/23 07:39:09;;;;;;;9.53;6.93;;;;;;;0.10;48.83;95028.91;5007918;28;20191;-76
2022/01/23 07:41:34;;;;;;;11.00;7.87;;;;;;;-0.33;49.75;95030.47;5025922;28;20188;-75
2022/01/23 07:44:00;;;;;;;10.10;6.67;;;;;;;0.00;49.44;95023.66;5025905;28;20195;-75
2022/01/23 07:46:28;;;;;;;6.50;5.80;;;;;;;-0.28;49.81;95025.81;5007979;28;20180;-75
2022/01/23 07:48:54;;;;;;;9.55;7.35;;;;;;;0.10;49.20;95032.28;5008205;28;20431;-75
2022/01/23 07:51:20;;;;;;;9.30;7.40;;;;;;;0.14;49.29;95031.09;5007827;28;20645;-75
2022/01/23 07:53:45;;;;;;;7.70;5.97;;;;;;;0.31;48.52;95024.63;5025859;28;20188;-74
2022/01/23 07:56:11;;;;;;;6.03;5.43;;;;;;;-0.36;48.98;95033.31;5008116;28;20195;-75
2022/01/23 07:58:36;;;;;;;6.67;6.07;;;;;;;0.33;48.28;95035.63;5026325;28;20257;-75
2022/01/23 08:01:02;;;;;;;6.70;4.63;;;;;;;0.14;48.78;95038.81;5020690;28;20197;-75
2022/01/23 08:03:27;;;;;;;2.90;2.63;;;;;;;-0.04;48.40;95035.09;4992503;28;20200;-74
2022/01/23 08:05:53;;;;;;;8.50;7.13;;;;;;;0.53;47.70;95041.75;5026483;28;20184;-75
2022/01/23 08:08:18;;;;;;;7.63;6.67;;;;;;;0.46;47.79;95037.22;5007475;28;20227;-75
2022/01/23 08:10:44;;;;;;;7.40;5.93;;;;;;;-0.08;48.59;95041.44;5007869;28;20326;-75
2022/01/23 08:13:09;;;;;;;7.03;4.00;;;;;;;-0.11;48.16;95031.41;5008297;28;20198;-75
2022/01/23 08:15:35;;;;;;;11.90;6.80;;;;;;;0.25;48.66;95043.13;5008506;28;20196;-75
2022/01/23 08:18:02;;;;;;;7.63;5.43;;;;;;;-0.03;47.36;95039.34;5007920;28;20184;-75
2022/01/23 08:20:28;;;;;;;8.48;6.63;;;;;;;-0.07;48.62;95033.59;5008688;28;20187;-75
2022/01/23 08:22:54;;;;;;;8.45;7.28;;;;;;;0.14;49.19;95046.53;5033070;28;20206;-75
2022/01/23 08:25:20;;;;;;;8.83;6.50;;;;;;;0.57;47.29;95048.28;5025825;28;20247;-76
2022/01/23 08:27:46;;;;;;;6.72;6.13;;;;;;;-0.31;47.80;95028.59;5025222;28;20195;-79
2022/01/23 08:30:15;;;;;;;6.70;5.23;;;;;;;-0.15;47.97;95035.97;5008789;28;20220;-75
2022/01/23 08:32:40;;;;;;;7.30;6.28;;;;;;;0.13;48.09;95044.91;5004525;28;20189;-75
2022/01/23 08:35:06;;;;;;;7.07;6.40;;;;;;;0.25;47.67;95037.16;5006776;28;20204;-75
2022/01/23 08:37:32;;;;;;;12.10;5.53;;;;;;;0.23;47.57;95039.88;5007817;28;20251;-75
2022/01/23 08:39:57;;;;;;;7.10;5.27;;;;;;;0.57;47.28;95038.00;5026503;28;20195;-75
2022/01/23 08:42:23;;;;;;;5.33;4.60;;;;;;;0.48;46.63;95037.91;5006794;28;20187;-75
2022/01/23 08:44:50;;;;;;;10.73;5.90;;;;;;;-0.11;47.74;95037.34;5004744;28;20567;-75
2022/01/23 08:47:17;;;;;;;5.70;4.90;;;;;;;-0.53;47.91;95033.75;5025416;28;20423;-76
2022/01/23 08:49:46;;;;;;;5.88;5.22;;;;;;;-0.73;48.18;95012.97;5027185;28;20204;-75
2022/01/23 08:52:16;;;;;;;5.32;4.80;;;;;;;0.16;47.26;95034.38;5009118;28;20180;-76
2022/01/23 08:54:43;;;;;;;5.75;4.47;;;;;;;0.09;47.67;95027.25;5026569;28;20171;-75
2022/01/23 08:57:09;;;;;;;2.70;2.60;;;;;;;0.23;46.93;95029.56;5038698;28;20180;-75
2022/01/23 08:59:34;;;;;;;6.30;5.00;;;;;;;0.55;46.46;95029.56;5026612;28;20192;-76
2022/01/23 09:02:00;;;;;;;5.13;4.37;;;;;;;-0.11;47.20;95026.25;5000920;28;20225;-75
2022/01/23 09:04:25;;;;;;;6.90;4.50;;;;;;;-0.13;47.08;95022.97;5018697;28;20191;-75
2022/01/23 09:06:51;;;;;;;9.13;6.07;;;;;;;0.27;47.15;95019.84;5032426;28;20197;-75
2022/01/23 09:09:19;;;;;;;5.03;4.53;;;;;;;-0.53;48.48;95026.88;5002069;28;20184;-75
2022/01/23 09:11:59;;;;;;;5.95;5.40;;;;;;;-0.16;47.48;95023.22;5024250;28;20313;-75
2022/01/23 09:14:25;;;;;;;4.70;3.17;;;;;;;0.10;47.26;95028.91;5032387;28;20247;-76
2022/01/23 09:16:52;;;;;;;4.83;4.10;;;;;;;-0.07;47.34;95023.31;5003350;28;20204;-75
2022/01/23 09:19:20;;;;;;;8.10;5.88;;;;;;;0.01;47.36;95025.28;5040077;28;20187;-75
2022/01/23 09:21:49;;;;;;;8.73;5.20;;;;;;;0.46;46.63;95029.50;5030282;28;20211;-76
2022/01/23 09:24:15;;;;;;;5.30;3.92;;;;;;;0.16;46.43;94993.22;5016673;28;20232;-75
2022/01/23 09:26:40;;;;;;;8.50;6.50;;;;;;;-0.51;48.75;95013.88;5005835;28;20199;-75
2022/01/23 09:29:15;;;;;;;8.77;5.67;;;;;;;0.33;47.21;95016.78;5034175;28;20184;-75
2022/01/23 09:31:52;;;;;;;10.65;5.78;;;;;;;0.10;47.80;95010.91;5015869;28;20239;-76
2022/01/23 09:34:21;;;;;;;4.55;4.00;;;;;;;0.31;47.37;95011.75;5009517;28;20195;-76
2022/01/23 09:36:48;;;;;;;3.85;3.47;;;;;;;0.24;47.17;95009.78;5010990;28;20282;-75
2022/01/23 09:39:17;;;;;;;5.90;5.30;;;;;;;0.08;46.92;95013.59;5029767;28;20200;-75
2022/01/23 09:41:49;;;;;;;8.45;5.25;;;;;;;0.93;45.46;95023.06;5027601;28;20180;-75
2022/01/23 09:44:17;;;;;;;4.32;3.85;;;;;;;0.35;46.75;95020.88;5011009;28;20177;-75
2022/01/23 09:46:45;;;;;;;6.75;5.15;;;;;;;0.24;46.21;95009.78;5009798;28;20212;-76
2022/01/23 09:49:17;;;;;;;7.95;5.45;;;;;;;0.21;46.21;95007.47;5017298;28;20210;-75
2022/01/23 09:51:46;;;;;;;4.60;4.25;;;;;;;0.09;45.78;95004.09;5010683;28;20274;-75
2022/01/23 09:54:19;;;;;;;6.60;5.95;;;;;;;-0.34;46.48;94990.28;5014282;28;20180;-77
2022/01/23 09:56:45;;;;;;;6.43;5.72;;;;;;;0.19;46.13;95002.47;5030306;28;20184;-76
2022/01/23 09:59:31;;;;;;;8.93;4.40;;;;;;;0.34;46.32;94988.38;5019388;28;20196;-76
2022/01/23 10:05:54;;;;;;;6.70;5.97;;;;;;;0.28;46.85;94998.31;4964679;28;20292;-77
2022/01/23 10:08:50;;;;;;;7.88;5.65;;;;;;;0.08;46.96;94995.56;4950107;28;20186;-78
2022/01/23 10:14:04;;;;;;;11.23;6.18;;;;;;;0.55;46.33;94988.38;5009714;28;20192;-76
2022/01/23 10:16:39;;;;;;;4.65;4.22;;;;;;;0.34;46.07;94987.53;5018157;28;20220;-77
2022/01/23 10:22:14;;;;;;;7.80;5.32;;;;;;;0.97;44.33;94980.66;4967087;28;20294;-76
2022/01/23 10:24:50;;;;;;;3.22;2.55;;;;;;;-0.05;46.46;94970.00;4938896;29;20254;-77
2022/01/23 10:31:14;;;;;;;4.55;2.88;;;;;;;-0.34;46.48;94961.19;4891288;29;20748;-79
2022/01/23 10:33:39;;;;;;;4.03;3.75;;;;;;;-0.57;47.31;94968.09;4906617;29;20237;-77
2022/01/23 10:36:08;;;;;;;7.37;5.93;;;;;;;-0.57;47.18;94950.91;4910978;29;20699;-78
2022/01/23 10:38:58;;;;;;;6.90;5.78;;;;;;;0.51;45.45;94956.09;4943008;28;20202;-78
2022/01/23 10:41:47;;;;;;;5.95;5.22;;;;;;;0.60;45.38;94943.41;5006141;28;20182;-77
2022/01/23 10:50:00;;;;;;;5.38;4.18;;;;;;;0.72;44.86;94947.53;5008506;28;20174;-76
2022/01/23 10:52:36;;;;;;;4.90;4.50;;;;;;;0.75;44.29;94937.00;5030462;28;20214;-76
2022/01/23 10:55:13;;;;;;;6.22;4.85;;;;;;;0.04;44.62;94911.88;5028146;28;20180;-76
2022/01/23 10:57:50;;;;;;;4.38;3.97;;;;;;;-0.19;45.95;94926.53;5010418;28;20250;-76
2022/01/23 11:00:31;;;;;;;4.35;3.95;;;;;;;0.39;44.29;94931.34;5010480;28;20267;-75
2022/01/23 11:02:59;;;;;;;4.15;3.13;;;;;;;0.58;43.60;94920.38;5036352;28;20191;-75
2022/01/23 11:05:36;;;;;;;5.82;4.05;;;;;;;0.06;45.65;94915.13;5042284;28;20214;-76
2022/01/23 11:08:37;;;;;;;4.10;3.70;;;;;;;0.33;44.76;94922.38;5012024;28;20196;-76
2022/01/23 11:11:06;;;;;;;8.50;3.85;;;;;;;-0.39;45.48;94922.97;4913865;29;20203;-75
2022/01/23 11:22:49;;;;;;;5.72;3.95;;;;;;;0.91;42.98;94909.03;5027903;28;20689;-76
2022/01/23 11:29:15;;;;;;;7.72;4.05;;;;;;;0.33;43.02;94885.53;5028986;28;20265;-76
2022/01/23 11:31:50;;;;;;;5.15;4.05;;;;;;;0.96;43.26;94888.84;5034833;28;20681;-77
2022/01/23 11:34:20;;;;;;;6.07;5.60;;;;;;;0.80;42.97;94887.66;5009852;28;20182;-76
2022/01/23 11:36:46;;;;;;;5.68;4.10;;;;;;;0.35;43.13;94894.75;5025578;28;20187;-69
2022/01/23 11:39:22;;;;;;;4.67;3.50;;;;;;;0.19;44.85;94866.09;5026271;28;20199;-69
2022/01/23 11:56:32;;;;;;;4.43;4.05;;;;;;;0.07;45.30;94875.59;5025852;28;20215;-69
2022/01/23 11:59:10;;;;;;;5.00;4.20;;;;;;;0.67;43.45;94877.59;5009111;28;20271;-69
2022/01/23 12:01:39;;;;;;;3.00;2.53;;;;;;;0.42;43.16;94868.50;5024652;28;20641;-70
2022/01/23 12:04:19;;;;;;;5.38;3.72;;;;;;;0.82;42.47;94862.63;5025100;28;20214;-69
2022/01/23 12:07:11;;;;;;;4.28;3.20;;;;;;;0.21;43.51;94871.06;5024805;28;20204;-68
2022/01/23 12:09:38;;;;;;;6.38;4.22;;;;;;;0.02;43.55;94872.59;5010699;28;20207;-68
2022/01/23 12:12:30;;;;;;;4.82;4.43;;;;;;;0.66;43.25;94860.50;5030719;28;20592;-69
2022/01/23 12:18:29;;;;;;;4.10;3.80;;;;;;;-0.14;43.08;94837.00;5025603;28;20198;-70
2022/01/23 12:20:56;;;;;;;4.40;4.00;;;;;;;-0.12;43.56;94840.25;5025267;28;20172;-69
2022/01/23 12:23:23;;;;;;;6.35;3.50;;;;;;;-0.14;44.91;94873.00;5027467;28;20188;-69
2022/01/23 12:25:51;;;;;;;5.28;4.15;;;;;;;-0.12;45.25;94876.25;5025358;28;20227;-68
2022/01/23 12:28:28;;;;;;;3.85;3.63;;;;;;;-0.57;45.90;94865.31;5026225;28;20196;-68
2022/01/23 12:31:18;;;;;;;7.50;4.78;;;;;;;0.15;44.89;94877.53;5008370;28;20207;-69
2022/01/23 12:33:48;;;;;;;3.20;3.00;;;;;;;-0.43;46.64;94877.91;5020410;28;20258;-69
2022/01/23 12:36:13;;;;;;;8.43;3.80;;;;;;;-0.35;46.31;94875.53;5025504;28;20208;-69
2022/01/23 12:38:53;;;;;;;5.67;4.70;;;;;;;0.02;44.92;94846.03;5019312;28;20207;-69
2022/01/23 12:41:24;;;;;;;3.60;3.40;;;;;;;0.15;45.13;94865.50;5021216;28;20607;-69
2022/01/23 12:43:53;;;;;;;5.82;4.47;;;;;;;-0.31;45.77;94871.78;5022551;28;20191;-69
2022/01/23 12:46:52;;;;;;;4.53;4.13;;;;;;;-0.69;46.78;94873.03;5035291;28;20643;-68
2022/01/23 12:49:31;;;;;;;4.68;3.95;;;;;;;-0.17;46.35;94875.00;5027042;28;20207;-68
2022/01/23 12:52:05;;;;;;;4.22;3.83;;;;;;;0.07;45.80;94874.78;5010933;28;20702;-69
2022/01/23 12:54:33;;;;;;;4.22;3.92;;;;;;;0.29;45.71;94868.72;5028351;28;20215;-70
2022/01/23 12:57:08;;;;;;;5.32;3.63;;;;;;;0.04;46.45;94875.84;5028588;28;20180;-69
2022/01/23 12:59:35;;;;;;;5.10;4.63;;;;;;;0.04;47.12;94881.00;5011390;28;20342;-69
2022/01/23 13:02:08;;;;;;;7.13;5.28;;;;;;;0.04;47.01;94878.44;5029931;28;20183;-69
2022/01/23 13:04:39;;;;;;;4.25;3.90;;;;;;;0.05;46.80;94872.31;5021610;28;20289;-69
2022/01/23 13:07:20;;;;;;;5.35;3.80;;;;;;;0.08;46.07;94882.38;5028121;28;20272;-70
2022/01/23 13:09:54;;;;;;;6.43;4.15;;;;;;;0.28;46.31;94887.66;5026420;28;20279;-69
2022/01/23 13:15:19;;;;;;;6.82;5.25;;;;;;;0.61;45.82;94884.06;5027576;28;20204;-69
2022/01/23 13:27:04;;;;;;;4.15;3.75;;;;;;;-0.25;48.01;94891.88;5026895;28;20231;-69
2022/01/23 13:32:00;;;;;;;5.90;4.00;;;;;;;-0.15;46.51;94880.81;5028881;28;20208;-74
2022/01/23 13:34:34;;;;;;;6.95;6.03;;;;;;;0.14;46.29;94892.16;5028944;28;20207;-70
2022/01/23 13:37:06;;;;;;;4.97;4.53;;;;;;;-0.25;47.33;94896.19;5026626;28;20175;-70
2022/01/23 13:39:37;;;;;;;4.15;3.78;;;;;;;-0.66;48.13;94870.25;5007645;28;20196;-70
2022/01/23 13:53:13;;;;;;;4.05;3.75;;;;;;;-0.63;48.52;94884.59;5024595;28;20204;-69
2022/01/23 13:58:51;;;;;;;9.23;4.43;;;;;;;-0.51;48.41;94898.22;5014162;28;20199;-69
2022/01/23 14:03:53;;;;;;;7.72;3.90;;;;;;;-0.31;47.77;94892.34;5026839;28;20188;-69
2022/01/23 14:06:19;;;;;;;6.22;4.10;;;;;;;-0.68;48.50;94897.00;5030403;28;20238;-70
2022/01/23 14:09:21;;;;;;;6.53;4.50;;;;;;;-1.04;49.04;94884.31;5037667;28;20226;-70
2022/01/23 14:11:48;;;;;;;8.00;4.72;;;;;;;-0.37;48.86;94882.56;4927992;29;20462;-70
2022/01/23 14:14:22;;;;;;;6.90;4.25;;;;;;;-0.02;47.81;94895.19;5008428;28;20196;-70
2022/01/23 14:16:50;;;;;;;5.88;4.38;;;;;;;0.40;46.58;94896.97;5027033;28;20187;-69
2022/01/23 14:19:25;;;;;;;5.10;4.70;;;;;;;0.67;46.29;94899.00;5027263;28;20216;-69
2022/01/23 14:21:53;;;;;;;6.45;4.53;;;;;;;-0.10;47.07;94894.16;5026593;28;20188;-70
2022/01/23 14:24:26;;;;;;;5.85;3.92;;;;;;;-0.28;47.58;94910.09;5027084;28;20963;-70
2022/01/23 14:27:06;;;;;;;6.13;4.05;;;;;;;-0.33;47.92;94896.78;5026949;28;20696;-70
2022/01/23 14:29:48;;;;;;;3.17;2.92;;;;;;;0.35;47.45;94914.53;5006252;28;20212;-70
2022/01/23 14:32:23;;;;;;;5.85;5.32;;;;;;;0.03;47.88;94917.13;5028605;28;20191;-70
2022/01/23 14:34:49;;;;;;;4.13;3.83;;;;;;;-0.25;48.19;94907.31;5024428;28;20184;-71
2022/01/23 14:37:23;;;;;;;4.50;4.10;;;;;;;-0.36;48.63;94909.91;5024651;28;20238;-69
2022/01/23 14:39:48;;;;;;;4.75;4.25;;;;;;;-0.55;49.29;94919.97;5022055;28;20191;-70
2022/01/23 14:42:20;;;;;;;6.33;4.63;;;;;;;-1.03;50.90;94921.88;5002162;28;20185;-70
2022/01/23 14:44:46;;;;;;;6.30;4.93;;;;;;;-0.27;49.13;94929.72;5023874;28;20182;-70
2022/01/23 14:47:12;;;;;;;10.18;6.05;;;;;;;-0.63;49.89;94920.56;5026908;28;20180;-69
2022/01/23 14:49:41;;;;;;;7.83;5.33;;;;;;;-0.40;49.47;94927.31;5027073;28;20187;-70
2022/01/23 14:52:13;;;;;;;5.53;4.07;;;;;;;-0.23;48.63;94927.72;5026113;28;20493;-70
2022/01/23 14:54:39;;;;;;;5.63;4.90;;;;;;;0.00;48.94;94933.63;5026019;28;20180;-70
2022/01/23 14:57:09;;;;;;;7.50;4.10;;;;;;;0.25;47.74;94932.47;5007909;28;20191;-69
2022/01/23 14:59:36;;;;;;;5.05;4.57;;;;;;;-0.38;49.66;94922.03;5026291;28;20195;-69
2022/01/23 15:02:04;;;;;;;6.38;5.72;;;;;;;-0.64;50.14;94927.47;5008667;28;20176;-70
2022/01/23 15:04:39;;;;;;;5.78;5.28;;;;;;;-0.65;50.07;94925.81;5026163;28;20202;-70
2022/01/23 15:07:04;;;;;;;9.57;5.50;;;;;;;-0.65;50.39;94937.84;5016550;28;20207;-71
2022/01/23 15:09:30;;;;;;;4.83;4.53;;;;;;;-1.04;51.50;94937.41;5029241;28;20259;-68
2022/01/23 15:11:55;;;;;;;5.63;3.90;;;;;;;-0.21;49.36;94936.97;5028326;28;20228;-70
2022/01/23 15:14:21;;;;;;;5.80;5.20;;;;;;;-0.21;50.24;94944.69;5026874;28;20212;-70
2022/01/23 15:16:48;;;;;;;3.80;3.53;;;;;;;-0.81;51.34;94935.66;5002303;28;20236;-68
2022/01/23 15:19:14;;;;;;;7.75;5.30;;;;;;;-0.62;51.10;94956.44;5026253;28;20202;-69
2022/01/23 15:21:39;;;;;;;5.73;5.20;;;;;;;-0.85;51.44;94949.69;5027955;28;20269;-69
2022/01/23 15:24:05;;;;;;;6.07;5.33;;;;;;;-1.07;52.82;94956.41;5025290;28;20215;-69
2022/01/23 15:26:34;;;;;;;5.40;4.23;;;;;;;-0.91;52.12;94945.81;5005360;28;20222;-69
2022/01/23 15:29:00;;;;;;;8.00;6.03;;;;;;;-0.49;51.06;94960.63;5024952;28;20435;-69
2022/01/23 15:31:25;;;;;;;12.30;7.10;;;;;;;-0.28;50.99;94969.25;5023983;28;20200;-69
2022/01/23 15:33:51;;;;;;;5.40;4.47;;;;;;;-0.93;52.19;94955.41;5023991;28;20247;-69
2022/01/23 15:36:17;;;;;;;10.80;7.33;;;;;;;-0.40;51.46;94960.75;5024180;28;20180;-69
2022/01/23 15:38:44;;;;;;;6.33;5.53;;;;;;;-0.60;51.99;94964.84;5024574;28;20219;-69
2022/01/23 15:41:13;;;;;;;5.70;5.20;;;;;;;-1.09;53.42;94973.69;5024929;28;20598;-69
2022/01/23 15:43:39;;;;;;;9.60;5.90;;;;;;;-0.82;53.79;94980.25;5025647;28;20192;-69
2022/01/23 15:46:06;;;;;;;6.80;5.90;;;;;;;-1.23;54.69;94976.50;5025604;28;20187;-69
2022/01/23 15:48:33;;;;;;;5.88;5.43;;;;;;;-0.70;53.51;94993.91;5030608;28;20256;-69
2022/01/23 15:50:58;;;;;;;8.93;5.65;;;;;;;-1.14;54.66;94975.78;5029142;28;20200;-68